Time;durP1;ratioP1;P1;durP2;ratioP2;P2;SDS_P1;SDS_P2;PMS_P1;PMS_P2;Temp;Humidity;BMP_temperature;BMP_pressure;BME280_temperature;BME280_humidity;BME280_pressure;Samples;Min_cycle;Max_cycle;Signal;HPM_P1;HPM_P2
2022/05/01 00:00:38;;;;;;;6.90;4.77;;;11.10;99.90;;;;;;5069946;28;20250;-73
2022/05/01 00:03:06;;;;;;;6.90;4.63;;;11.20;99.90;;;;;;5072057;28;20202;-73
2022/05/01 00:05:33;;;;;;;5.43;3.90;;;11.10;99.90;;;;;;5074267;28;20216;-73
2022/05/01 00:08:00;;;;;;;5.93;4.60;;;11.10;99.90;;;;;;5075981;28;20484;-72
2022/05/01 00:10:27;;;;;;;8.53;4.77;;;11.10;99.90;;;;;;5069929;28;20222;-73
2022/05/01 00:12:56;;;;;;;7.40;4.57;;;11.00;99.90;;;;;;5069261;28;20216;-71
2022/05/01 00:15:23;;;;;;;6.27;4.87;;;11.00;99.90;;;;;;5069588;28;20243;-71
2022/05/01 00:17:49;;;;;;;6.87;4.73;;;11.00;99.90;;;;;;5073334;28;20215;-70
2022/05/01 00:20:16;;;;;;;6.33;4.97;;;11.00;99.90;;;;;;5073756;28;20227;-72
2022/05/01 00:22:43;;;;;;;6.63;4.60;;;11.20;99.90;;;;;;5074025;28;20607;-74
2022/05/01 00:25:09;;;;;;;5.37;4.30;;;11.00;99.90;;;;;;5072765;28;20935;-75
2022/05/01 00:27:36;;;;;;;7.07;5.00;;;10.90;99.90;;;;;;5073172;28;20194;-77
2022/05/01 00:30:04;;;;;;;7.33;5.00;;;10.90;99.90;;;;;;5066126;28;20201;-77
2022/05/01 00:36:25;;;;;;;9.33;5.67;;;10.90;99.90;;;;;;5076345;28;20222;-78
2022/05/01 00:38:03;;;;;;;8.90;5.83;;;10.80;99.90;;;;;;5070246;28;20514;-78
2022/05/01 00:40:30;;;;;;;10.67;5.13;;;10.70;99.90;;;;;;5067077;28;20257;-74
2022/05/01 00:43:01;;;;;;;12.87;6.27;;;10.70;99.90;;;;;;5073833;28;20283;-76
2022/05/01 00:45:29;;;;;;;7.00;5.50;;;10.70;99.90;;;;;;5072298;28;20565;-78
2022/05/01 00:47:55;;;;;;;9.50;5.87;;;10.60;99.90;;;;;;5074764;28;20912;-79
2022/05/01 00:50:22;;;;;;;7.93;5.97;;;10.60;99.90;;;;;;5079698;28;20215;-79
2022/05/01 00:52:50;;;;;;;8.20;5.00;;;10.70;99.90;;;;;;5077391;28;20218;-75
2022/05/01 00:55:17;;;;;;;9.57;5.70;;;10.60;99.90;;;;;;5076341;28;20218;-80
2022/05/01 00:57:47;;;;;;;7.43;5.90;;;10.50;99.90;;;;;;5074379;28;20240;-81
2022/05/01 01:00:16;;;;;;;7.43;5.10;;;10.70;99.90;;;;;;5071485;28;20195;-79
2022/05/01 01:02:43;;;;;;;9.47;5.83;;;10.60;99.90;;;;;;5082436;28;20199;-81
2022/05/01 01:05:10;;;;;;;7.90;5.57;;;10.60;99.90;;;;;;5067097;28;20714;-80
2022/05/01 01:07:36;;;;;;;7.90;4.80;;;10.60;99.90;;;;;;5080036;28;20214;-83
2022/05/01 01:10:04;;;;;;;5.53;4.57;;;10.50;99.90;;;;;;5067660;28;20206;-79
2022/05/01 01:15:17;;;;;;;7.53;5.57;;;10.50;99.90;;;;;;5067752;28;20218;-78
2022/05/01 01:17:46;;;;;;;7.17;5.37;;;10.40;99.90;;;;;;5077180;28;20571;-80
2022/05/01 01:20:23;;;;;;;8.43;5.40;;;10.40;99.90;;;;;;5072049;28;20194;-79
2022/05/01 01:22:53;;;;;;;8.53;5.57;;;10.30;99.90;;;;;;5071315;28;20202;-81
2022/05/01 01:25:26;;;;;;;8.37;5.37;;;10.30;99.90;;;;;;5073155;28;20227;-80
2022/05/01 01:27:57;;;;;;;9.70;5.53;;;10.30;99.90;;;;;;5072234;28;20205;-78
2022/05/01 01:33:10;;;;;;;8.27;5.77;;;10.30;99.90;;;;;;5070109;28;20221;-80
2022/05/01 01:35:38;;;;;;;9.60;5.33;;;10.30;99.90;;;;;;5081790;28;20679;-79
2022/05/01 01:38:05;;;;;;;10.73;5.90;;;10.30;99.90;;;;;;5071537;28;20191;-82
2022/05/01 01:40:40;;;;;;;10.27;6.00;;;10.40;99.90;;;;;;5082019;28;20188;-78
2022/05/01 01:43:09;;;;;;;9.20;5.60;;;10.40;99.90;;;;;;5064035;28;20582;-79
2022/05/01 01:45:35;;;;;;;9.17;5.83;;;10.30;99.90;;;;;;5075742;28;20223;-82
2022/05/01 01:48:09;;;;;;;11.77;5.90;;;10.40;99.90;;;;;;5072384;28;20708;-79
2022/05/01 01:50:36;;;;;;;9.07;6.30;;;10.40;99.90;;;;;;5070019;28;20198;-83
2022/05/01 01:53:02;;;;;;;10.07;6.47;;;10.60;99.90;;;;;;5069696;28;20223;-77
2022/05/01 01:55:33;;;;;;;8.73;6.30;;;10.60;99.90;;;;;;5077978;28;20217;-78
2022/05/01 01:58:00;;;;;;;8.13;6.23;;;10.60;99.90;;;;;;5079570;28;20222;-78
2022/05/01 02:00:27;;;;;;;10.50;6.80;;;10.70;99.90;;;;;;5074964;28;20202;-80
2022/05/01 02:03:12;;;;;;;8.30;6.33;;;10.80;99.90;;;;;;5077657;28;20200;-80
2022/05/01 02:05:38;;;;;;;10.47;6.73;;;10.60;99.90;;;;;;5074487;28;20545;-77
2022/05/01 02:08:05;;;;;;;10.43;6.23;;;10.80;99.90;;;;;;5074313;28;20194;-79
2022/05/01 02:10:32;;;;;;;9.00;6.60;;;10.60;99.90;;;;;;5075255;28;20221;-77
2022/05/01 02:13:00;;;;;;;10.93;6.10;;;10.50;99.90;;;;;;5074952;28;20732;-74
2022/05/01 02:15:33;;;;;;;10.73;6.43;;;10.50;99.90;;;;;;5075541;28;20221;-76
2022/05/01 02:18:00;;;;;;;8.43;6.33;;;10.60;99.90;;;;;;5070392;28;20267;-77
2022/05/01 02:21:33;;;;;;;9.07;6.67;;;10.60;99.90;;;;;;5075490;28;20201;-77
2022/05/01 02:23:16;;;;;;;8.37;6.60;;;10.70;99.90;;;;;;5073929;28;20633;-77
2022/05/01 02:25:43;;;;;;;10.60;6.70;;;10.60;99.90;;;;;;5072395;28;20202;-82
2022/05/01 02:28:10;;;;;;;9.57;7.30;;;10.60;99.90;;;;;;5072130;28;20221;-78
2022/05/01 02:30:38;;;;;;;8.60;6.73;;;10.70;99.90;;;;;;5075540;28;20561;-79
2022/05/01 02:33:06;;;;;;;9.10;6.87;;;10.70;99.90;;;;;;5078559;28;20804;-80
2022/05/01 02:35:35;;;;;;;9.53;6.70;;;10.80;99.90;;;;;;5075849;28;20292;-79
2022/05/01 02:38:03;;;;;;;10.63;6.77;;;10.80;99.90;;;;;;5072725;28;20206;-78
2022/05/01 02:40:31;;;;;;;9.20;6.53;;;10.60;99.90;;;;;;5070824;28;20203;-77
2022/05/01 02:43:00;;;;;;;9.27;6.40;;;10.60;99.90;;;;;;5072905;28;20570;-80
2022/05/01 02:45:28;;;;;;;7.63;5.73;;;10.60;99.90;;;;;;5070517;28;20229;-81
2022/05/01 02:47:55;;;;;;;9.90;6.70;;;10.50;99.90;;;;;;5074410;28;20229;-80
2022/05/01 02:50:22;;;;;;;8.43;6.53;;;10.50;99.90;;;;;;5071402;28;20201;-79
2022/05/01 02:52:51;;;;;;;11.00;6.73;;;10.50;99.90;;;;;;5072110;28;20227;-77
2022/05/01 02:55:19;;;;;;;10.83;7.53;;;10.50;99.90;;;;;;5074552;28;20209;-80
2022/05/01 02:57:46;;;;;;;9.73;6.50;;;10.40;99.90;;;;;;5076247;28;20194;-80
2022/05/01 03:00:16;;;;;;;9.87;7.00;;;10.50;99.90;;;;;;5073853;28;20194;-80
2022/05/01 03:02:45;;;;;;;9.83;6.40;;;10.50;99.90;;;;;;5074474;28;20716;-78
2022/05/01 03:05:12;;;;;;;9.90;6.97;;;10.40;99.90;;;;;;5083251;28;20425;-78
2022/05/01 03:07:39;;;;;;;9.10;6.60;;;10.40;99.90;;;;;;5078347;28;20198;-79
2022/05/01 03:10:07;;;;;;;11.47;6.37;;;10.30;99.90;;;;;;5074181;28;20207;-77
2022/05/01 03:12:34;;;;;;;12.40;6.73;;;10.20;99.90;;;;;;5073773;28;20707;-78
2022/05/01 03:15:02;;;;;;;13.23;6.97;;;10.30;99.90;;;;;;5081332;28;20231;-79
2022/05/01 03:22:10;;;;;;;10.50;7.07;;;10.40;99.90;;;;;;5069479;28;20412;-79
2022/05/01 03:23:00;;;;;;;10.90;6.80;;;10.40;99.90;;;;;;5075172;28;20202;-77
2022/05/01 03:25:27;;;;;;;10.83;6.70;;;10.20;99.90;;;;;;5073128;28;20232;-77
2022/05/01 03:27:54;;;;;;;9.60;6.40;;;10.10;99.90;;;;;;5086454;28;20197;-73
2022/05/01 03:30:22;;;;;;;9.37;6.70;;;10.00;99.90;;;;;;5075113;28;20194;-74
2022/05/01 03:32:49;;;;;;;9.60;6.53;;;10.00;99.90;;;;;;5073249;28;20222;-75
2022/05/01 03:35:17;;;;;;;8.47;6.13;;;10.00;99.90;;;;;;5076723;28;20206;-76
2022/05/01 03:37:44;;;;;;;11.63;6.83;;;10.00;99.90;;;;;;5074508;28;20198;-75
2022/05/01 03:40:14;;;;;;;12.00;6.80;;;10.10;99.90;;;;;;5077311;28;20198;-79
2022/05/01 03:42:42;;;;;;;11.20;7.30;;;10.10;99.90;;;;;;5071276;28;20661;-77
2022/05/01 03:45:09;;;;;;;11.77;7.03;;;10.30;99.90;;;;;;5073241;28;20214;-77
2022/05/01 03:47:37;;;;;;;9.73;6.33;;;10.40;99.90;;;;;;5073398;28;20546;-79
2022/05/01 03:50:05;;;;;;;8.43;6.27;;;10.40;99.90;;;;;;5067890;28;20209;-78
2022/05/01 03:52:33;;;;;;;11.40;7.30;;;10.40;99.90;;;;;;5073925;28;20220;-78
2022/05/01 03:55:00;;;;;;;8.27;6.50;;;10.20;99.90;;;;;;5074329;28;20218;-79
2022/05/01 03:57:34;;;;;;;9.70;6.83;;;10.00;99.90;;;;;;5071966;28;20324;-73
2022/05/01 04:00:01;;;;;;;9.93;6.60;;;9.90;99.90;;;;;;5081035;28;20202;-73
2022/05/01 04:02:27;;;;;;;9.00;5.87;;;9.90;99.90;;;;;;5070688;28;20199;-72
2022/05/01 04:04:54;;;;;;;8.27;6.20;;;10.00;99.90;;;;;;5069727;28;20265;-74
2022/05/01 04:07:21;;;;;;;9.13;5.73;;;10.00;99.90;;;;;;5073211;28;20202;-80
2022/05/01 04:09:48;;;;;;;9.33;6.03;;;10.00;99.90;;;;;;5079877;28;20668;-79
2022/05/01 04:12:16;;;;;;;11.73;7.20;;;10.00;99.90;;;;;;5079545;28;20207;-80
2022/05/01 04:14:43;;;;;;;9.83;6.63;;;10.00;99.90;;;;;;5079081;28;20644;-80
2022/05/01 04:17:10;;;;;;;10.13;6.30;;;10.00;99.90;;;;;;5069964;28;20201;-73
2022/05/01 04:19:36;;;;;;;8.87;6.17;;;10.10;99.90;;;;;;5076303;28;20201;-73
2022/05/01 04:22:04;;;;;;;9.80;6.23;;;10.10;99.90;;;;;;5073159;28;20224;-72
2022/05/01 04:24:30;;;;;;;9.33;6.00;;;10.10;99.90;;;;;;5074614;28;20218;-74
2022/05/01 04:26:57;;;;;;;10.27;6.70;;;10.20;99.90;;;;;;5067985;28;20686;-77
2022/05/01 04:29:36;;;;;;;11.03;6.67;;;10.20;99.90;;;;;;5081048;28;20781;-77
2022/05/01 04:32:05;;;;;;;9.43;7.20;;;10.30;99.90;;;;;;5074847;28;20197;-80
2022/05/01 04:34:32;;;;;;;9.30;6.83;;;10.30;99.90;;;;;;5078378;28;20225;-78
2022/05/01 04:36:59;;;;;;;8.40;6.87;;;10.40;99.90;;;;;;5073508;28;20195;-77
2022/05/01 04:39:26;;;;;;;9.53;6.80;;;10.40;99.90;;;;;;5073616;28;20194;-74
2022/05/01 04:41:53;;;;;;;9.00;6.33;;;10.50;99.90;;;;;;5078024;28;20192;-73
2022/05/01 04:44:21;;;;;;;9.30;5.90;;;10.50;99.90;;;;;;5066341;28;20216;-70
2022/05/01 04:46:49;;;;;;;9.33;6.93;;;10.50;99.90;;;;;;5074206;28;20199;-75
2022/05/01 04:49:20;;;;;;;7.70;5.80;;;10.50;99.90;;;;;;5075424;28;20197;-73
2022/05/01 04:51:47;;;;;;;10.50;6.50;;;10.50;99.90;;;;;;5078488;28;20196;-72
2022/05/01 04:54:14;;;;;;;11.03;6.80;;;10.60;99.90;;;;;;5070717;28;20748;-74
2022/05/01 04:59:41;;;;;;;10.67;6.40;;;10.80;99.90;;;;;;5067743;28;20550;-76
2022/05/01 05:02:08;;;;;;;9.73;5.97;;;10.80;99.90;;;;;;5072947;28;20647;-72
2022/05/01 05:04:36;;;;;;;9.27;6.47;;;10.90;99.90;;;;;;5074533;28;20226;-76
2022/05/01 05:07:02;;;;;;;9.30;6.63;;;10.90;99.90;;;;;;5070123;28;20204;-78
2022/05/01 05:12:15;;;;;;;9.20;6.43;;;11.20;99.90;;;;;;5072449;28;20578;-77
2022/05/01 05:14:42;;;;;;;8.47;6.33;;;11.10;99.90;;;;;;5068894;28;20232;-78
2022/05/01 05:17:10;;;;;;;9.77;6.73;;;11.10;99.90;;;;;;5080394;28;20209;-78
2022/05/01 05:19:36;;;;;;;10.87;6.27;;;11.00;99.90;;;;;;5075208;28;20196;-79
2022/05/01 05:22:03;;;;;;;9.83;5.73;;;11.00;99.90;;;;;;5065885;28;20199;-79
2022/05/01 05:24:30;;;;;;;9.93;5.70;;;11.10;99.90;;;;;;5066230;28;20221;-79
2022/05/01 05:26:58;;;;;;;8.57;6.07;;;11.20;99.90;;;;;;5068399;28;20612;-79
2022/05/01 05:29:24;;;;;;;7.03;5.90;;;11.30;99.90;;;;;;5073142;28;20212;-78
2022/05/01 05:31:51;;;;;;;8.23;5.50;;;11.40;99.90;;;;;;5069796;28;20244;-81
2022/05/01 05:34:18;;;;;;;8.67;5.30;;;11.60;99.90;;;;;;5073083;28;20225;-77
2022/05/01 05:36:44;;;;;;;16.73;6.37;;;11.60;99.90;;;;;;5079088;28;20574;-78
2022/05/01 05:39:12;;;;;;;10.57;6.30;;;11.80;99.90;;;;;;5077883;28;20216;-75
2022/05/01 05:41:39;;;;;;;11.17;5.70;;;11.80;99.90;;;;;;5078011;28;20194;-73
2022/05/01 05:44:06;;;;;;;10.30;6.00;;;11.90;99.90;;;;;;5080318;28;20220;-73
2022/05/01 05:46:33;;;;;;;11.97;6.13;;;12.10;99.90;;;;;;5076292;28;20205;-72
2022/05/01 05:49:00;;;;;;;9.87;5.93;;;12.10;99.90;;;;;;5073491;28;20232;-72
2022/05/01 05:51:26;;;;;;;7.07;5.33;;;12.10;99.90;;;;;;5071497;28;20201;-72
2022/05/01 05:53:54;;;;;;;8.93;5.97;;;12.20;99.90;;;;;;5071111;28;20217;-71
2022/05/01 05:56:21;;;;;;;6.77;4.77;;;12.20;99.90;;;;;;5073440;28;20198;-71
2022/05/01 05:58:48;;;;;;;10.57;5.83;;;12.30;99.90;;;;;;5068801;28;20199;-73
2022/05/01 06:01:15;;;;;;;8.17;5.50;;;12.40;99.90;;;;;;5067934;28;20190;-73
2022/05/01 06:03:42;;;;;;;9.90;5.73;;;12.60;99.90;;;;;;5080008;28;20231;-73
2022/05/01 06:06:09;;;;;;;8.87;5.97;;;12.70;99.90;;;;;;5074591;28;20700;-73
2022/05/01 06:08:37;;;;;;;8.63;5.30;;;12.80;99.90;;;;;;5071891;28;20700;-74
2022/05/01 06:11:04;;;;;;;6.37;5.47;;;12.80;99.90;;;;;;5066811;28;20212;-71
2022/05/01 06:13:31;;;;;;;7.13;4.93;;;12.80;99.90;;;;;;5077414;28;20231;-72
2022/05/01 06:15:58;;;;;;;7.17;5.40;;;12.70;99.90;;;;;;5076972;28;20192;-72
2022/05/01 06:18:25;;;;;;;8.13;5.80;;;12.70;99.90;;;;;;5078580;28;20196;-71
2022/05/01 06:20:53;;;;;;;8.73;5.00;;;12.80;99.90;;;;;;5071479;28;20210;-72
2022/05/01 06:23:25;;;;;;;8.20;5.27;;;12.80;99.90;;;;;;5075789;28;20205;-71
2022/05/01 06:25:52;;;;;;;7.03;5.50;;;13.00;99.90;;;;;;5073768;28;20213;-72
2022/05/01 06:28:19;;;;;;;8.17;5.80;;;13.00;99.90;;;;;;5072480;28;20208;-72
2022/05/01 06:30:48;;;;;;;8.20;5.17;;;13.20;99.90;;;;;;5069152;28;20201;-71
2022/05/01 06:33:17;;;;;;;8.63;5.07;;;13.20;99.90;;;;;;5075803;28;20213;-70
2022/05/01 06:35:47;;;;;;;7.20;5.23;;;13.20;99.90;;;;;;5070504;28;20682;-70
2022/05/01 06:38:14;;;;;;;8.00;5.47;;;13.20;99.90;;;;;;5070907;28;20196;-71
2022/05/01 06:40:43;;;;;;;7.93;5.50;;;13.30;99.90;;;;;;5076945;28;20197;-74
2022/05/01 06:43:14;;;;;;;10.23;5.40;;;13.50;99.90;;;;;;5073560;28;20198;-70
2022/05/01 06:45:42;;;;;;;6.63;5.10;;;13.60;99.90;;;;;;5073110;28;20653;-72
2022/05/01 06:48:12;;;;;;;6.53;5.00;;;13.70;99.90;;;;;;5076332;28;20194;-72
2022/05/01 06:50:39;;;;;;;7.47;5.07;;;13.90;99.90;;;;;;5070816;28;20194;-73
2022/05/01 06:53:07;;;;;;;6.23;5.17;;;14.00;99.90;;;;;;5073898;28;20555;-71
2022/05/01 06:55:34;;;;;;;6.80;5.20;;;14.10;99.90;;;;;;5071858;28;20210;-73
2022/05/01 06:58:00;;;;;;;8.10;4.80;;;14.30;99.90;;;;;;5082709;28;20201;-70
2022/05/01 07:00:27;;;;;;;9.70;5.80;;;14.40;99.90;;;;;;5074479;28;20189;-73
2022/05/01 07:02:54;;;;;;;11.80;5.67;;;14.50;99.90;;;;;;5077496;28;20194;-67
2022/05/01 07:05:23;;;;;;;7.90;5.07;;;14.60;99.90;;;;;;5079393;28;20586;-68
2022/05/01 07:07:50;;;;;;;7.50;5.40;;;14.60;99.90;;;;;;5070633;28;20205;-68
2022/05/01 07:10:19;;;;;;;8.97;5.60;;;14.50;99.90;;;;;;5073272;28;20217;-68
2022/05/01 07:12:46;;;;;;;7.57;5.30;;;14.60;99.90;;;;;;5069356;28;20256;-68
2022/05/01 07:15:13;;;;;;;9.40;5.83;;;14.70;99.90;;;;;;5077165;28;20614;-68
2022/05/01 07:17:41;;;;;;;7.63;5.67;;;14.90;99.90;;;;;;5071676;28;20234;-68
2022/05/01 07:20:09;;;;;;;8.60;6.20;;;14.90;99.90;;;;;;5069729;28;20186;-68
2022/05/01 07:22:41;;;;;;;9.37;5.57;;;15.10;99.90;;;;;;5075462;28;20194;-68
2022/05/01 07:25:08;;;;;;;10.00;5.57;;;15.10;99.90;;;;;;5068968;28;20556;-68
2022/05/01 07:27:35;;;;;;;7.10;5.27;;;15.20;99.90;;;;;;5078773;28;20198;-68
2022/05/01 07:30:01;;;;;;;8.17;5.50;;;15.40;99.90;;;;;;5078558;28;20208;-68
2022/05/01 07:32:28;;;;;;;7.67;5.20;;;15.60;99.90;;;;;;5073731;28;20672;-68
2022/05/01 07:34:56;;;;;;;7.00;5.17;;;15.80;99.90;;;;;;5078606;28;20240;-68
2022/05/01 07:37:26;;;;;;;7.33;5.43;;;15.80;99.90;;;;;;5073015;28;20202;-68
2022/05/01 07:39:54;;;;;;;7.53;5.20;;;16.00;99.90;;;;;;5075991;28;20194;-68
2022/05/01 07:42:23;;;;;;;6.90;5.43;;;16.10;99.90;;;;;;5080042;28;20772;-67
2022/05/01 07:44:51;;;;;;;7.47;5.27;;;16.20;99.90;;;;;;5076947;28;20248;-67
2022/05/01 07:47:17;;;;;;;7.60;5.43;;;16.30;99.90;;;;;;5079190;28;20550;-68
2022/05/01 07:49:44;;;;;;;8.50;5.87;;;16.50;99.90;;;;;;5071536;28;20628;-70
2022/05/01 07:52:12;;;;;;;11.30;6.90;;;16.70;99.90;;;;;;5080270;28;20194;-72
2022/05/01 07:54:39;;;;;;;10.63;6.17;;;16.50;99.90;;;;;;5078257;28;20237;-71
2022/05/01 07:57:07;;;;;;;8.13;5.63;;;16.20;99.90;;;;;;5077955;28;20730;-70
2022/05/01 07:59:33;;;;;;;8.50;5.47;;;16.50;99.90;;;;;;5074050;28;20205;-71
2022/05/01 08:02:00;;;;;;;6.97;5.30;;;16.40;99.90;;;;;;5078508;28;20651;-72
2022/05/01 08:04:28;;;;;;;9.63;6.27;;;16.30;99.90;;;;;;5081349;28;20251;-73
2022/05/01 08:07:03;;;;;;;7.83;5.40;;;16.40;99.90;;;;;;5077082;28;20201;-71
2022/05/01 08:09:30;;;;;;;8.90;5.37;;;16.60;99.90;;;;;;5083822;28;20213;-71
2022/05/01 08:11:58;;;;;;;12.07;5.00;;;16.70;99.90;;;;;;5082694;28;20209;-71
2022/05/01 08:14:25;;;;;;;6.23;4.80;;;16.80;99.90;;;;;;5078559;28;20248;-73
2022/05/01 08:16:52;;;;;;;7.60;5.07;;;16.90;99.90;;;;;;5073920;28;20199;-72
2022/05/01 08:22:05;;;;;;;9.13;5.50;;;17.10;99.90;;;;;;5076392;28;20200;-71
2022/05/01 08:24:36;;;;;;;7.70;5.07;;;17.30;99.90;;;;;;5077514;28;20233;-72
2022/05/01 08:27:07;;;;;;;7.53;4.70;;;17.50;99.90;;;;;;5070054;28;20202;-71
2022/05/01 08:29:35;;;;;;;7.60;5.50;;;17.90;99.90;;;;;;5064903;28;20209;-72
2022/05/01 08:32:03;;;;;;;7.63;5.07;;;18.50;99.90;;;;;;5076565;28;20240;-72
2022/05/01 08:34:30;;;;;;;6.20;5.30;;;18.60;99.90;;;;;;5072172;28;20221;-74
2022/05/01 08:36:56;;;;;;;8.23;5.37;;;18.60;99.90;;;;;;5065728;28;20999;-71
2022/05/01 08:39:23;;;;;;;10.40;5.40;;;18.70;99.90;;;;;;5071533;28;20194;-71
2022/05/01 08:41:50;;;;;;;10.13;5.37;;;18.80;99.90;;;;;;5075483;28;20201;-73
2022/05/01 08:44:24;;;;;;;7.63;4.93;;;19.00;99.90;;;;;;5075838;28;20214;-72
2022/05/01 08:46:57;;;;;;;11.00;6.07;;;19.50;99.90;;;;;;5070524;28;20198;-72
2022/05/01 08:49:24;;;;;;;8.80;5.07;;;20.10;99.90;;;;;;5077879;28;20198;-71
2022/05/01 08:51:51;;;;;;;7.25;4.93;;;20.10;99.90;;;;;;5074820;28;20223;-71
2022/05/01 08:54:18;;;;;;;8.57;5.32;;;20.20;99.90;;;;;;5074312;28;20225;-68
2022/05/01 08:56:46;;;;;;;7.28;5.20;;;20.20;99.90;;;;;;5067124;28;20229;-71
2022/05/01 08:59:14;;;;;;;7.88;5.57;;;20.30;99.90;;;;;;5067664;28;20190;-71
2022/05/01 09:01:43;;;;;;;6.70;5.47;;;19.80;99.90;;;;;;5076125;28;20555;-71
2022/05/01 09:04:14;;;;;;;9.13;6.00;;;19.20;99.90;;;;;;5068897;28;20229;-71
2022/05/01 09:06:43;;;;;;;8.02;5.70;;;19.10;99.90;;;;;;5070315;28;20671;-71
2022/05/01 09:09:21;;;;;;;7.47;5.00;;;19.50;99.90;;;;;;5068729;28;20572;-71
2022/05/01 09:14:35;;;;;;;9.65;6.15;;;19.70;99.90;;;;;;5069976;28;20288;-70
2022/05/01 09:17:17;;;;;;;8.93;6.10;;;20.30;99.90;;;;;;5075850;28;20194;-68
2022/05/01 09:19:48;;;;;;;8.45;6.10;;;20.40;99.90;;;;;;5068529;28;20293;-68
2022/05/01 09:22:18;;;;;;;10.73;6.43;;;20.10;99.90;;;;;;5067087;28;20198;-67
2022/05/01 09:24:44;;;;;;;9.50;5.72;;;20.00;99.90;;;;;;5069322;28;20217;-68
2022/05/01 09:27:29;;;;;;;8.32;6.13;;;20.10;99.90;;;;;;5074095;28;20197;-65
2022/05/01 09:30:22;;;;;;;8.93;5.93;;;20.20;99.90;;;;;;5067225;28;20190;-65
2022/05/01 09:32:49;;;;;;;7.75;5.70;;;20.50;99.90;;;;;;5072168;28;20201;-65
2022/05/01 09:35:34;;;;;;;8.07;5.97;;;20.40;99.90;;;;;;5070401;28;20718;-65
2022/05/01 09:38:19;;;;;;;11.02;6.45;;;20.30;99.90;;;;;;5070122;28;20204;-65
2022/05/01 09:40:52;;;;;;;10.50;6.20;;;20.00;99.90;;;;;;5066799;28;20197;-65
2022/05/01 09:43:44;;;;;;;10.10;6.47;;;19.30;99.90;;;;;;5069466;28;20194;-66
2022/05/01 09:46:18;;;;;;;10.10;6.47;;;19.00;99.90;;;;;;5073494;28;20189;-65
2022/05/01 09:49:09;;;;;;;8.13;5.60;;;19.20;99.90;;;;;;5071597;28;20190;-65
2022/05/01 09:51:54;;;;;;;7.95;5.78;;;19.60;99.90;;;;;;5075242;28;20198;-65
2022/05/01 09:54:25;;;;;;;9.48;6.10;;;20.20;99.90;;;;;;5077661;28;20226;-66
2022/05/01 09:56:54;;;;;;;8.32;5.93;;;20.30;99.90;;;;;;5069114;28;20199;-66
2022/05/01 09:59:22;;;;;;;9.07;5.78;;;20.60;99.90;;;;;;5067559;28;20190;-65
2022/05/01 10:02:04;;;;;;;9.55;6.32;;;21.00;99.90;;;;;;5069329;28;20194;-66
2022/05/01 10:04:35;;;;;;;8.45;5.97;;;20.90;99.90;;;;;;5067186;28;20248;-66
2022/05/01 10:07:05;;;;;;;10.02;5.95;;;21.20;99.90;;;;;;5070305;28;20208;-66
2022/05/01 10:09:34;;;;;;;10.93;5.63;;;21.20;99.90;;;;;;5069685;28;20206;-68
2022/05/01 10:12:05;;;;;;;8.27;6.13;;;21.40;99.90;;;;;;5067403;28;20675;-68
2022/05/01 10:14:32;;;;;;;10.70;5.97;;;21.40;99.90;;;;;;5071097;28;20608;-68
2022/05/01 10:17:00;;;;;;;10.63;6.07;;;20.60;99.90;;;;;;5073072;28;20293;-67
2022/05/01 10:19:27;;;;;;;9.82;6.40;;;20.10;99.90;;;;;;5076262;28;20190;-68
2022/05/01 10:21:57;;;;;;;9.13;6.00;;;19.90;99.90;;;;;;5073364;28;20212;-68
2022/05/01 10:24:24;;;;;;;8.88;5.55;;;20.20;99.90;;;;;;5074221;28;20225;-70
2022/05/01 10:27:17;;;;;;;7.72;5.57;;;20.80;99.90;;;;;;5073271;28;20201;-69
2022/05/01 10:32:52;;;;;;;8.75;5.57;;;21.80;99.90;;;;;;5072342;28;20660;-68
2022/05/01 10:35:47;;;;;;;10.30;5.50;;;21.90;99.90;;;;;;5077941;28;20245;-69
2022/05/01 10:38:31;;;;;;;9.95;5.50;;;21.90;99.90;;;;;;5071685;28;20213;-72
2022/05/01 10:40:59;;;;;;;7.68;5.75;;;22.00;99.90;;;;;;5076642;28;20202;-67
2022/05/01 10:43:38;;;;;;;9.45;5.93;;;21.50;99.90;;;;;;5073916;28;20210;-67
2022/05/01 10:46:24;;;;;;;9.25;6.03;;;20.90;99.90;;;;;;5077612;28;20208;-67
2022/05/01 10:48:52;;;;;;;8.65;6.18;;;20.30;99.90;;;;;;5074108;28;20208;-66
2022/05/01 10:51:29;;;;;;;6.97;5.60;;;20.50;99.90;;;;;;5072300;28;20213;-67
2022/05/01 10:54:19;;;;;;;8.70;5.50;;;20.40;99.90;;;;;;5080713;28;20844;-67
2022/05/01 10:56:48;;;;;;;8.38;5.50;;;20.70;99.90;;;;;;5074274;28;20572;-67
2022/05/01 10:59:43;;;;;;;9.15;5.30;;;21.10;99.90;;;;;;5070671;28;20197;-68
2022/05/01 11:02:24;;;;;;;9.35;5.32;;;21.20;99.90;;;;;;5070736;28;20194;-69
2022/05/01 11:04:55;;;;;;;7.10;4.93;;;21.50;99.90;;;;;;5075337;28;20220;-67
2022/05/01 11:07:25;;;;;;;8.88;5.30;;;21.70;99.90;;;;;;5076286;28;20585;-68
2022/05/01 11:09:55;;;;;;;7.22;5.38;;;21.90;99.90;;;;;;5068439;28;20240;-68
2022/05/01 11:12:22;;;;;;;7.40;5.95;;;21.90;99.90;;;;;;5074581;28;20218;-68
2022/05/01 11:14:53;;;;;;;8.65;5.97;;;22.00;99.90;;;;;;5074215;28;20244;-67
2022/05/01 11:17:49;;;;;;;7.45;5.55;;;21.60;99.90;;;;;;5070276;28;20197;-68
2022/05/01 11:20:18;;;;;;;7.88;5.82;;;21.70;99.90;;;;;;5076996;28;20212;-68
2022/05/01 11:22:48;;;;;;;7.10;4.97;;;22.00;99.90;;;;;;5072911;28;20190;-67
2022/05/01 11:25:38;;;;;;;7.88;5.25;;;21.90;99.90;;;;;;5073083;28;20217;-67
2022/05/01 11:28:06;;;;;;;7.50;5.55;;;21.90;99.90;;;;;;5079585;28;20206;-67
2022/05/01 11:30:37;;;;;;;8.98;6.38;;;21.90;99.90;;;;;;5073112;28;20212;-68
2022/05/01 11:33:11;;;;;;;12.38;8.88;;;22.10;99.90;;;;;;5073227;28;20198;-69
2022/05/01 11:35:57;;;;;;;10.32;6.25;;;22.70;99.90;;;;;;5074627;28;20213;-68
2022/05/01 11:38:39;;;;;;;7.43;5.45;;;23.10;99.90;;;;;;5070641;28;20228;-68
2022/05/01 11:41:07;;;;;;;8.38;5.50;;;23.00;99.90;;;;;;5075640;28;20189;-68
2022/05/01 11:43:35;;;;;;;7.72;4.82;;;22.70;99.90;;;;;;5076016;28;20704;-68
2022/05/01 11:46:03;;;;;;;8.55;4.97;;;22.80;99.90;;;;;;5075491;28;20190;-68
2022/05/01 11:48:31;;;;;;;6.43;4.75;;;23.10;99.90;;;;;;5078679;28;20205;-68
2022/05/01 11:51:01;;;;;;;8.70;5.32;;;23.20;99.90;;;;;;5076942;28;20642;-68
2022/05/01 11:53:32;;;;;;;9.50;5.25;;;23.00;99.90;;;;;;5082318;28;20342;-68
2022/05/01 12:04:36;;;;;;;9.13;5.30;;;22.20;99.90;;;;;;5074503;28;20255;-70
2022/05/01 12:07:09;;;;;;;8.15;5.10;;;21.90;99.90;;;;;;5079863;28;20194;-70
2022/05/01 12:09:38;;;;;;;6.60;5.13;;;22.30;99.90;;;;;;5080285;28;20559;-70
2022/05/01 12:12:12;;;;;;;7.22;4.40;;;21.80;99.90;;;;;;5071864;28;20191;-69
2022/05/01 12:14:40;;;;;;;7.20;4.55;;;22.20;99.90;;;;;;5074228;28;20603;-70
2022/05/01 12:17:14;;;;;;;10.00;4.95;;;22.40;99.90;;;;;;5078600;28;20633;-70
2022/05/01 12:19:43;;;;;;;6.70;4.72;;;22.20;99.90;;;;;;5068693;28;20187;-69
2022/05/01 12:22:14;;;;;;;6.32;4.30;;;22.10;99.90;;;;;;5077589;28;20194;-70
2022/05/01 12:24:43;;;;;;;7.85;4.95;;;22.50;99.90;;;;;;5072646;28;20222;-70
2022/05/01 12:27:12;;;;;;;8.25;4.80;;;22.60;99.90;;;;;;5073431;28;20198;-69
2022/05/01 12:29:47;;;;;;;7.38;4.80;;;22.00;99.90;;;;;;5070166;28;20206;-69
2022/05/01 12:32:15;;;;;;;7.10;4.60;;;21.70;99.90;;;;;;5080666;28;20200;-69
2022/05/01 12:34:44;;;;;;;9.20;4.78;;;21.60;99.90;;;;;;5078542;28;20726;-69
2022/05/01 12:37:19;;;;;;;8.82;4.60;;;21.30;99.90;;;;;;5084798;28;20222;-70
2022/05/01 12:40:10;;;;;;;6.72;5.18;;;21.20;99.90;;;;;;5079032;28;20198;-70
2022/05/01 12:45:45;;;;;;;7.28;4.80;;;20.90;99.90;;;;;;5075869;28;20683;-69
2022/05/01 12:48:14;;;;;;;6.07;4.53;;;21.00;99.90;;;;;;5075144;28;20198;-69
2022/05/01 12:50:43;;;;;;;6.35;4.38;;;21.80;99.90;;;;;;5076774;28;20690;-70
2022/05/01 12:53:30;;;;;;;6.80;4.40;;;22.20;99.90;;;;;;5085871;28;20193;-70
2022/05/01 12:55:58;;;;;;;7.28;5.00;;;22.50;99.90;;;;;;5073475;28;20214;-69
2022/05/01 12:58:29;;;;;;;7.90;4.45;;;22.60;99.90;;;;;;5069948;28;20209;-69
2022/05/01 13:00:56;;;;;;;6.78;5.13;;;23.20;99.90;;;;;;5073289;28;20193;-69
2022/05/01 13:03:33;;;;;;;6.25;5.05;;;23.30;99.90;;;;;;5082729;28;20197;-68
2022/05/01 13:06:09;;;;;;;11.30;4.63;;;23.50;99.90;;;;;;5083029;28;20202;-68
2022/05/01 13:08:41;;;;;;;8.27;5.53;;;23.50;99.90;;;;;;5084931;28;20201;-69
2022/05/01 13:11:15;;;;;;;5.20;4.20;;;23.80;99.90;;;;;;5082773;28;20208;-68
2022/05/01 13:13:51;;;;;;;5.00;4.50;;;24.20;99.90;;;;;;5079900;28;20695;-69
2022/05/01 13:16:23;;;;;;;5.32;4.07;;;24.20;99.90;;;;;;5076096;28;20268;-70
2022/05/01 13:18:55;;;;;;;5.95;4.75;;;24.10;99.90;;;;;;5076970;28;20225;-70
2022/05/01 13:21:25;;;;;;;8.75;4.38;;;24.10;99.90;;;;;;5078253;28;20656;-70
2022/05/01 13:23:58;;;;;;;9.52;4.05;;;23.80;99.90;;;;;;5075684;28;20214;-69
2022/05/01 13:26:32;;;;;;;5.10;4.38;;;23.60;99.90;;;;;;5073984;28;20209;-69
2022/05/01 13:28:59;;;;;;;7.30;4.70;;;23.10;99.90;;;;;;5075286;28;20200;-70
2022/05/01 13:31:25;;;;;;;6.97;4.95;;;22.70;99.90;;;;;;5069453;28;20241;-70
2022/05/01 13:33:52;;;;;;;7.47;5.72;;;22.30;99.90;;;;;;5082274;28;20270;-69
2022/05/01 13:36:19;;;;;;;7.63;5.05;;;22.10;99.90;;;;;;5074539;28;20586;-69